createdAt,value
2017-09-13T00:01:01.106Z,1003.1
2017-09-13T00:02:02.523Z,1003.1
2017-09-13T00:03:03.941Z,1003.0
2017-09-13T00:04:05.348Z,1003.0
2017-09-13T00:05:06.780Z,1002.9
2017-09-13T00:06:08.193Z,1002.8
2017-09-13T00:07:09.609Z,1002.9
2017-09-13T00:08:11.026Z,1002.9
2017-09-13T00:09:12.441Z,1002.8
2017-09-13T00:10:13.855Z,1002.9
2017-09-13T00:11:15.274Z,1002.8
2017-09-13T00:12:16.689Z,1002.8
2017-09-13T00:13:18.106Z,1002.8
2017-09-13T00:14:19.522Z,1002.8
2017-09-13T00:15:20.939Z,1002.8
2017-09-13T00:16:22.354Z,1002.7
2017-09-13T00:17:23.770Z,1002.7
2017-09-13T00:18:25.186Z,1002.6
2017-09-13T00:19:26.604Z,1002.5
2017-09-13T00:20:28.019Z,1002.5
2017-09-13T00:21:29.434Z,1002.4
2017-09-13T00:22:30.851Z,1002.3
2017-09-13T00:23:32.266Z,1002.3
2017-09-13T00:24:33.683Z,1002.2
2017-09-13T00:25:35.099Z,1002.2
2017-09-13T00:26:36.518Z,1002.1
2017-09-13T00:27:37.936Z,1002.1
2017-09-13T00:28:39.350Z,1002.1
2017-09-13T00:29:40.770Z,1002.1
2017-09-13T00:30:42.187Z,1002.1
2017-09-13T00:31:43.599Z,1002.0
2017-09-13T00:32:45.023Z,1001.9
2017-09-13T00:33:46.439Z,1001.9
2017-09-13T00:34:47.867Z,1001.9
2017-09-13T00:35:49.305Z,1001.8
2017-09-13T00:36:50.697Z,1001.7
2017-09-13T00:37:52.117Z,1001.7
2017-09-13T00:38:53.530Z,1001.6
2017-09-13T00:39:54.945Z,1001.6
2017-09-13T00:40:56.361Z,1001.6
2017-09-13T00:41:57.776Z,1001.6
2017-09-13T00:42:59.193Z,1001.5
2017-09-13T00:44:00.608Z,1001.5
2017-09-13T00:45:02.025Z,1001.5
2017-09-13T00:46:03.440Z,1001.4
2017-09-13T00:47:04.856Z,1001.3
2017-09-13T00:48:06.272Z,1001.3
2017-09-13T00:49:07.688Z,1001.2
2017-09-13T00:50:09.105Z,1001.2
2017-09-13T00:51:10.520Z,1001.2
2017-09-13T00:52:11.935Z,1001.2
2017-09-13T00:53:13.381Z,1001.2
2017-09-13T00:54:14.770Z,1001.2
2017-09-13T00:55:16.187Z,1001.2
2017-09-13T00:56:17.599Z,1001.2
2017-09-13T00:57:19.015Z,1001.2
2017-09-13T00:58:20.432Z,1001.2
2017-09-13T00:59:21.849Z,1001.1
2017-09-13T01:00:23.265Z,1001.1
2017-09-13T01:01:24.682Z,1001.1
2017-09-13T01:02:26.099Z,1001.1
2017-09-13T01:03:27.516Z,1001.0
2017-09-13T01:04:28.933Z,1001.0
2017-09-13T01:05:30.353Z,1000.9
2017-09-13T01:06:31.769Z,1000.8
2017-09-13T01:07:33.186Z,1000.8
2017-09-13T01:08:34.607Z,1000.8
2017-09-13T01:09:36.022Z,1000.7
2017-09-13T01:10:37.441Z,1000.6
2017-09-13T01:11:38.857Z,1000.5
2017-09-13T01:12:40.269Z,1000.5
2017-09-13T01:13:41.688Z,1000.5
2017-09-13T01:14:43.103Z,1000.4
2017-09-13T01:15:44.522Z,1000.4
2017-09-13T01:16:45.940Z,1000.3
2017-09-13T01:17:47.356Z,1000.2
2017-09-13T01:18:48.772Z,1000.3
2017-09-13T01:19:50.188Z,1000.2
2017-09-13T01:20:51.604Z,1000.2
2017-09-13T01:21:53.023Z,1000.1
2017-09-13T01:22:54.443Z,1000.1
2017-09-13T01:23:55.858Z,1000.1
2017-09-13T01:24:57.274Z,1000.1
2017-09-13T01:25:58.692Z,1000.0
2017-09-13T01:27:00.107Z,1000.0
2017-09-13T01:28:01.520Z,999.9
2017-09-13T01:29:02.936Z,999.9
2017-09-13T01:30:04.345Z,999.9
2017-09-13T01:31:05.765Z,999.9
2017-09-13T01:32:07.179Z,999.8
2017-09-13T01:33:08.594Z,999.8
2017-09-13T01:34:10.011Z,999.7
2017-09-13T01:35:11.425Z,999.6
2017-09-13T01:36:12.842Z,999.6
2017-09-13T01:37:14.255Z,999.5
2017-09-13T01:38:15.673Z,999.5
2017-09-13T01:39:17.085Z,999.4
2017-09-13T01:40:18.499Z,999.4
2017-09-13T01:41:19.919Z,999.3
2017-09-13T01:42:21.329Z,999.3
2017-09-13T01:43:22.744Z,999.3
2017-09-13T01:44:24.160Z,999.2
2017-09-13T01:45:25.576Z,999.2
2017-09-13T01:46:26.988Z,999.1
2017-09-13T01:47:28.401Z,999.0
2017-09-13T01:48:29.816Z,998.9
2017-09-13T01:49:31.232Z,998.9
2017-09-13T01:50:32.648Z,998.9
2017-09-13T01:51:34.061Z,998.8
2017-09-13T01:52:35.478Z,998.9
2017-09-13T01:53:36.891Z,998.8
2017-09-13T01:54:38.309Z,998.7
2017-09-13T01:55:39.729Z,998.6
2017-09-13T01:56:41.135Z,998.6
2017-09-13T01:57:42.550Z,998.5
2017-09-13T01:58:44.101Z,998.5
2017-09-13T01:59:45.518Z,998.5
2017-09-13T02:00:46.935Z,998.5
2017-09-13T02:01:48.349Z,998.5
2017-09-13T02:02:49.765Z,998.4
2017-09-13T02:03:51.179Z,998.4
2017-09-13T02:04:52.623Z,998.3
2017-09-13T02:05:54.016Z,998.3
2017-09-13T02:06:55.424Z,998.2
2017-09-13T02:07:56.875Z,998.2
2017-09-13T02:08:58.253Z,998.2
2017-09-13T02:09:59.668Z,998.2
2017-09-13T02:11:01.083Z,998.1
2017-09-13T02:12:02.497Z,998.0
2017-09-13T02:13:03.912Z,998.0
2017-09-13T02:14:05.328Z,998.0
2017-09-13T02:15:06.745Z,998.0
2017-09-13T02:16:08.159Z,997.8
2017-09-13T02:17:09.575Z,997.8
2017-09-13T02:18:10.988Z,997.8
2017-09-13T02:19:12.405Z,997.8
2017-09-13T02:20:13.827Z,997.7
2017-09-13T02:21:15.242Z,997.8
2017-09-13T02:22:16.656Z,997.8
2017-09-13T02:23:18.071Z,997.8
2017-09-13T02:24:19.486Z,997.7
2017-09-13T02:25:20.901Z,997.7
2017-09-13T02:26:22.318Z,997.7
2017-09-13T02:27:23.732Z,997.8
2017-09-13T02:28:25.146Z,997.8
2017-09-13T02:29:26.563Z,997.8
2017-09-13T02:30:27.978Z,997.8
2017-09-13T02:31:29.394Z,997.8
2017-09-13T02:32:30.809Z,997.8
2017-09-13T02:33:32.223Z,997.9
2017-09-13T02:34:33.639Z,998.0
2017-09-13T02:35:35.053Z,997.9
2017-09-13T02:36:36.470Z,997.9
2017-09-13T02:37:37.882Z,998.0
2017-09-13T02:38:39.296Z,998.0
2017-09-13T02:39:40.712Z,998.0
2017-09-13T02:40:42.139Z,997.8
2017-09-13T02:41:43.543Z,997.8
2017-09-13T02:42:45.056Z,997.8
2017-09-13T02:43:46.470Z,997.7
2017-09-13T02:44:47.887Z,997.7
2017-09-13T02:45:49.304Z,997.8
2017-09-13T02:46:50.723Z,997.6
2017-09-13T02:47:52.141Z,997.6
2017-09-13T02:48:53.559Z,997.7
2017-09-13T02:49:54.972Z,997.7
2017-09-13T02:50:56.389Z,997.7
2017-09-13T02:51:57.805Z,997.7
2017-09-13T02:52:59.220Z,997.6
2017-09-13T02:54:00.636Z,997.6
2017-09-13T02:55:02.053Z,997.6
2017-09-13T02:56:03.467Z,997.5
2017-09-13T02:57:04.884Z,997.5
2017-09-13T02:58:06.300Z,997.6
2017-09-13T02:59:07.713Z,997.6
2017-09-13T03:00:09.131Z,997.6
2017-09-13T03:01:10.544Z,997.6
2017-09-13T03:02:11.960Z,997.8
2017-09-13T03:03:13.375Z,997.5
2017-09-13T03:04:14.790Z,997.5
2017-09-13T03:05:16.207Z,997.5
2017-09-13T03:06:17.622Z,997.5
2017-09-13T03:07:19.038Z,997.4
2017-09-13T03:08:20.451Z,997.4
2017-09-13T03:09:21.869Z,997.3
2017-09-13T03:10:23.288Z,997.4
2017-09-13T03:11:24.697Z,997.3
2017-09-13T03:12:26.117Z,997.2
2017-09-13T03:13:27.530Z,997.2
2017-09-13T03:14:28.950Z,997.2
2017-09-13T03:15:30.368Z,997.2
2017-09-13T03:16:31.782Z,997.3
2017-09-13T03:17:33.196Z,997.1
2017-09-13T03:18:34.610Z,997.1
2017-09-13T03:19:36.025Z,997.0
2017-09-13T03:20:37.433Z,997.1
2017-09-13T03:21:38.853Z,997.1
2017-09-13T03:22:40.271Z,997.0
2017-09-13T03:23:41.688Z,997.0
2017-09-13T03:24:43.102Z,997.0
2017-09-13T03:25:44.519Z,997.0
2017-09-13T03:26:45.934Z,996.8
2017-09-13T03:27:47.346Z,996.8
2017-09-13T03:28:48.763Z,996.8
2017-09-13T03:29:50.180Z,996.7
2017-09-13T03:30:51.595Z,996.7
2017-09-13T03:31:53.009Z,996.7
2017-09-13T03:32:54.422Z,996.8
2017-09-13T03:33:55.840Z,996.8
2017-09-13T03:34:57.256Z,996.8
2017-09-13T03:35:58.672Z,996.8
2017-09-13T03:37:00.085Z,996.7
2017-09-13T03:38:01.504Z,996.7
2017-09-13T03:39:02.920Z,996.7
2017-09-13T03:40:04.336Z,996.7
2017-09-13T03:41:05.751Z,996.6
2017-09-13T03:42:07.167Z,996.6
2017-09-13T03:43:08.583Z,996.6
2017-09-13T03:44:10.000Z,996.6
2017-09-13T03:45:11.415Z,996.5
2017-09-13T03:46:12.831Z,996.5
2017-09-13T03:47:14.247Z,996.5
2017-09-13T03:48:15.663Z,996.6
2017-09-13T03:49:17.081Z,996.5
2017-09-13T03:50:18.495Z,996.4
2017-09-13T03:51:19.910Z,996.3
2017-09-13T03:52:21.327Z,996.5
2017-09-13T03:53:22.740Z,996.3
2017-09-13T03:54:24.155Z,996.3
2017-09-13T03:55:25.570Z,996.3
2017-09-13T03:56:26.990Z,996.4
2017-09-13T03:57:28.404Z,996.3
2017-09-13T03:58:29.816Z,996.3
2017-09-13T03:59:31.233Z,996.3
2017-09-13T04:00:32.645Z,996.4
2017-09-13T04:01:34.062Z,996.4
2017-09-13T04:02:35.478Z,996.3
2017-09-13T04:03:36.889Z,996.3
2017-09-13T04:04:38.307Z,996.3
2017-09-13T04:05:39.723Z,996.4
2017-09-13T04:06:41.139Z,996.2
2017-09-13T04:07:42.552Z,996.2
2017-09-13T04:08:44.095Z,996.2
2017-09-13T04:09:45.511Z,996.3
2017-09-13T04:10:46.925Z,996.2
2017-09-13T04:11:48.342Z,996.1
2017-09-13T04:12:49.755Z,996.1
2017-09-13T04:13:51.172Z,996.1
2017-09-13T04:14:52.587Z,996.0
2017-09-13T04:15:54.002Z,996.0
2017-09-13T04:16:55.416Z,996.1
2017-09-13T04:17:56.832Z,996.0
2017-09-13T04:18:58.248Z,996.0
2017-09-13T04:19:59.666Z,995.9
2017-09-13T04:21:01.079Z,996.0
2017-09-13T04:22:02.494Z,995.9
2017-09-13T04:23:03.910Z,995.9
2017-09-13T04:24:05.337Z,995.9
2017-09-13T04:25:06.755Z,995.9
2017-09-13T04:26:08.169Z,995.8
2017-09-13T04:27:09.584Z,995.8
2017-09-13T04:28:11.002Z,995.7
2017-09-13T04:29:12.418Z,995.8
2017-09-13T04:30:13.837Z,995.8
2017-09-13T04:31:15.251Z,995.6
2017-09-13T04:32:16.671Z,995.7
2017-09-13T04:33:18.085Z,995.8
2017-09-13T04:34:19.502Z,995.7
2017-09-13T04:35:20.917Z,995.6
2017-09-13T04:36:22.332Z,995.6
2017-09-13T04:37:23.761Z,995.7
2017-09-13T04:38:25.163Z,995.6
2017-09-13T04:39:26.580Z,995.7
2017-09-13T04:40:27.996Z,995.7
2017-09-13T04:41:29.487Z,995.6
2017-09-13T04:42:30.904Z,995.6
2017-09-13T04:43:32.319Z,995.6
2017-09-13T04:44:33.733Z,995.6
2017-09-13T04:45:35.153Z,995.8
2017-09-13T04:46:36.566Z,995.7
2017-09-13T04:47:37.984Z,995.6
2017-09-13T04:48:39.403Z,995.6
2017-09-13T04:49:40.818Z,995.6
2017-09-13T04:50:42.233Z,995.6
2017-09-13T04:51:43.648Z,995.6
2017-09-13T04:52:45.055Z,995.6
2017-09-13T04:53:46.487Z,995.6
2017-09-13T04:54:47.903Z,995.5
2017-09-13T04:55:49.320Z,995.5
2017-09-13T04:56:50.735Z,995.7
2017-09-13T04:57:52.150Z,995.6
2017-09-13T04:58:53.566Z,995.5
2017-09-13T04:59:54.982Z,995.5
2017-09-13T05:00:56.395Z,995.5
2017-09-13T05:01:57.810Z,995.5
2017-09-13T05:02:59.228Z,995.6
2017-09-13T05:04:00.643Z,995.6
2017-09-13T05:05:02.060Z,995.5
2017-09-13T05:06:03.475Z,995.5
2017-09-13T05:07:04.887Z,995.5
2017-09-13T05:08:06.304Z,995.4
2017-09-13T05:09:07.718Z,995.5
2017-09-13T05:10:09.134Z,995.5
2017-09-13T05:11:10.546Z,995.4
2017-09-13T05:12:11.964Z,995.3
2017-09-13T05:13:13.408Z,995.4
2017-09-13T05:14:14.792Z,995.3
2017-09-13T05:15:16.210Z,995.2
2017-09-13T05:16:17.622Z,995.3
2017-09-13T05:17:19.042Z,995.3
2017-09-13T05:18:20.453Z,995.3
2017-09-13T05:19:21.870Z,995.2
2017-09-13T05:20:23.285Z,995.4
2017-09-13T05:21:24.702Z,995.4
2017-09-13T05:22:26.116Z,995.3
2017-09-13T05:23:27.531Z,995.3
2017-09-13T05:24:28.945Z,995.4
2017-09-13T05:25:30.360Z,995.3
2017-09-13T05:26:31.776Z,995.3
2017-09-13T05:27:33.202Z,995.2
2017-09-13T05:28:34.619Z,995.2
2017-09-13T05:29:36.036Z,995.4
2017-09-13T05:30:37.453Z,995.4
2017-09-13T05:31:38.869Z,995.3
2017-09-13T05:32:40.287Z,995.3
2017-09-13T05:33:41.701Z,995.2
2017-09-13T05:34:43.119Z,995.2
2017-09-13T05:35:44.537Z,995.3
2017-09-13T05:36:45.953Z,995.3
2017-09-13T05:37:47.367Z,995.4
2017-09-13T05:38:48.782Z,995.3
2017-09-13T05:39:50.196Z,995.3
2017-09-13T05:40:51.615Z,995.3
2017-09-13T05:41:53.034Z,995.3
2017-09-13T05:42:54.450Z,995.3
2017-09-13T05:43:55.866Z,995.3
2017-09-13T05:44:57.280Z,995.3
2017-09-13T05:45:58.696Z,995.2
2017-09-13T05:47:00.110Z,995.1
2017-09-13T05:48:01.529Z,995.1
2017-09-13T05:49:02.966Z,995.1
2017-09-13T05:50:04.383Z,995.1
2017-09-13T05:51:05.801Z,995.1
2017-09-13T05:52:07.218Z,995.2
2017-09-13T05:53:08.636Z,995.1
2017-09-13T05:54:10.054Z,995.1
2017-09-13T05:55:11.468Z,995.0
2017-09-13T05:56:12.883Z,995.0
2017-09-13T05:57:14.302Z,995.1
2017-09-13T05:58:15.717Z,995.0
2017-09-13T05:59:17.133Z,995.0
2017-09-13T06:00:18.551Z,995.0
2017-09-13T06:01:19.966Z,995.0
2017-09-13T06:02:21.380Z,995.0
2017-09-13T06:03:22.791Z,995.0
2017-09-13T06:04:24.210Z,995.0
2017-09-13T06:05:25.625Z,994.9
2017-09-13T06:06:27.039Z,995.0
2017-09-13T06:07:28.461Z,995.0
2017-09-13T06:08:29.876Z,995.0
2017-09-13T06:09:31.292Z,995.0
2017-09-13T06:10:32.709Z,995.1
2017-09-13T06:11:34.124Z,995.0
2017-09-13T06:12:35.540Z,995.0
2017-09-13T06:13:36.952Z,995.0
2017-09-13T06:14:38.371Z,995.2
2017-09-13T06:15:39.785Z,995.1
2017-09-13T06:16:41.212Z,995.1
2017-09-13T06:17:42.618Z,995.1
2017-09-13T06:18:44.160Z,995.2
2017-09-13T06:19:45.578Z,995.2
2017-09-13T06:20:47.001Z,995.3
2017-09-13T06:21:48.416Z,995.1
2017-09-13T06:22:49.834Z,995.2
2017-09-13T06:23:51.255Z,995.2
2017-09-13T06:24:52.669Z,995.2
2017-09-13T06:25:54.085Z,995.2
2017-09-13T06:26:55.502Z,995.4
2017-09-13T06:27:56.919Z,995.5
2017-09-13T06:28:58.335Z,995.4
2017-09-13T06:29:59.751Z,995.4
2017-09-13T06:31:01.167Z,995.4
2017-09-13T06:32:02.597Z,995.5
2017-09-13T06:33:03.997Z,995.3
2017-09-13T06:34:05.414Z,995.6
2017-09-13T06:35:06.828Z,995.4
2017-09-13T06:36:08.246Z,995.4
2017-09-13T06:37:09.660Z,995.5
2017-09-13T06:38:11.079Z,995.5
2017-09-13T06:39:12.496Z,995.4
2017-09-13T06:40:13.911Z,995.4
2017-09-13T06:41:15.328Z,995.5
2017-09-13T06:42:16.744Z,995.6
2017-09-13T06:43:18.160Z,995.6
2017-09-13T06:44:19.577Z,995.5
2017-09-13T06:45:20.991Z,995.5
2017-09-13T06:46:22.410Z,995.5
2017-09-13T06:47:23.830Z,995.6
2017-09-13T06:48:25.245Z,995.5
2017-09-13T06:49:26.662Z,995.6
2017-09-13T06:50:28.082Z,995.6
2017-09-13T06:51:29.498Z,995.7
2017-09-13T06:52:30.914Z,995.7
2017-09-13T06:53:32.331Z,995.6
2017-09-13T06:54:33.746Z,995.6
2017-09-13T06:55:35.162Z,995.6
2017-09-13T06:56:36.579Z,995.6
2017-09-13T06:57:38.000Z,995.7
2017-09-13T06:58:39.414Z,995.7
2017-09-13T06:59:40.834Z,995.6
2017-09-13T07:00:42.249Z,995.6
2017-09-13T07:01:43.665Z,995.4
2017-09-13T07:02:45.082Z,995.5
2017-09-13T07:03:46.496Z,995.4
2017-09-13T07:04:47.911Z,995.5
2017-09-13T07:05:49.330Z,995.6
2017-09-13T07:06:50.746Z,995.4
2017-09-13T07:07:52.160Z,995.5
2017-09-13T07:08:53.579Z,995.5
2017-09-13T07:09:54.995Z,995.5
2017-09-13T07:10:56.410Z,995.6
2017-09-13T07:11:57.842Z,995.6
2017-09-13T07:12:59.258Z,995.6
2017-09-13T07:14:00.675Z,995.7
2017-09-13T07:15:02.092Z,995.6
2017-09-13T07:16:03.520Z,995.7
2017-09-13T07:17:04.936Z,995.5
2017-09-13T07:18:06.350Z,995.6
2017-09-13T07:19:07.769Z,995.6
2017-09-13T07:20:09.191Z,995.5
2017-09-13T07:21:10.601Z,995.6
2017-09-13T07:22:12.018Z,995.6
2017-09-13T07:23:13.432Z,995.7
2017-09-13T07:24:14.849Z,995.5
2017-09-13T07:25:16.269Z,995.7
2017-09-13T07:26:17.684Z,995.5
2017-09-13T07:27:19.100Z,995.5
2017-09-13T07:28:20.515Z,995.5
2017-09-13T07:29:21.932Z,995.5
2017-09-13T07:30:23.347Z,995.4
2017-09-13T07:31:24.761Z,995.5
2017-09-13T07:32:26.178Z,995.4
2017-09-13T07:33:27.597Z,995.4
2017-09-13T07:34:29.013Z,995.6
2017-09-13T07:35:30.431Z,995.5
2017-09-13T07:36:31.860Z,995.5
2017-09-13T07:37:33.271Z,995.4
2017-09-13T07:38:34.688Z,995.4
2017-09-13T07:39:36.104Z,995.5
2017-09-13T07:40:37.523Z,995.6
2017-09-13T07:41:38.932Z,995.5
2017-09-13T07:42:40.353Z,995.4
2017-09-13T07:43:41.769Z,995.4
2017-09-13T07:44:43.184Z,996.0
2017-09-13T07:45:44.605Z,995.6
2017-09-13T07:46:46.016Z,995.5
2017-09-13T07:47:47.434Z,995.6
2017-09-13T07:48:48.846Z,995.5
2017-09-13T07:49:50.265Z,995.6
2017-09-13T07:50:51.683Z,995.7
2017-09-13T07:51:53.099Z,995.7
2017-09-13T07:52:54.518Z,995.7
2017-09-13T07:53:55.942Z,995.7
2017-09-13T07:54:57.350Z,995.7
2017-09-13T07:55:58.768Z,995.9
2017-09-13T07:57:00.189Z,995.7
2017-09-13T07:58:01.610Z,995.9
2017-09-13T07:59:03.028Z,995.7
2017-09-13T08:00:04.443Z,996.0
2017-09-13T08:01:05.864Z,995.9
2017-09-13T08:02:07.282Z,995.9
2017-09-13T08:03:08.701Z,996.0
2017-09-13T08:04:10.120Z,995.8
2017-09-13T08:05:11.540Z,995.8
2017-09-13T08:06:12.956Z,996.0
2017-09-13T08:07:14.374Z,995.9
2017-09-13T08:08:15.790Z,996.0
2017-09-13T08:09:17.204Z,995.9
2017-09-13T08:10:18.622Z,995.9
2017-09-13T08:11:20.039Z,995.9
2017-09-13T08:12:21.456Z,995.7
2017-09-13T08:13:22.873Z,996.0
2017-09-13T08:14:24.291Z,995.7
2017-09-13T08:15:25.708Z,995.8
2017-09-13T08:16:27.125Z,996.1
2017-09-13T08:17:28.545Z,995.8
2017-09-13T08:18:29.961Z,995.9
2017-09-13T08:19:31.379Z,995.8
2017-09-13T08:20:32.795Z,995.8
2017-09-13T08:21:34.212Z,995.8
2017-09-13T08:22:35.628Z,996.0
2017-09-13T08:23:37.054Z,995.8
2017-09-13T08:24:38.470Z,996.2
2017-09-13T08:25:39.892Z,995.9
2017-09-13T08:26:41.313Z,996.0
2017-09-13T08:27:42.731Z,996.0
2017-09-13T08:28:44.156Z,996.0
2017-09-13T08:29:45.566Z,996.0
2017-09-13T08:30:47.012Z,996.0
2017-09-13T08:31:48.404Z,996.0
2017-09-13T08:32:49.824Z,996.0
2017-09-13T08:33:51.242Z,995.9
2017-09-13T08:34:52.682Z,996.1
2017-09-13T08:35:54.102Z,996.1
2017-09-13T08:36:55.520Z,996.0
2017-09-13T08:37:56.939Z,996.2
2017-09-13T08:38:58.358Z,996.0
2017-09-13T08:39:59.775Z,996.2
2017-09-13T08:41:01.189Z,996.1
2017-09-13T08:42:02.614Z,996.4
2017-09-13T08:43:04.032Z,996.6
2017-09-13T08:44:05.451Z,996.3
2017-09-13T08:45:06.868Z,996.2
2017-09-13T08:46:08.285Z,996.1
2017-09-13T08:47:09.703Z,996.2
2017-09-13T08:48:11.121Z,996.2
2017-09-13T08:49:12.537Z,996.2
2017-09-13T08:50:13.953Z,996.4
2017-09-13T08:51:15.372Z,996.4
2017-09-13T08:52:16.791Z,996.3
2017-09-13T08:53:18.210Z,996.3
2017-09-13T08:54:19.630Z,996.3
2017-09-13T08:55:21.052Z,996.4
2017-09-13T08:56:22.470Z,996.6
2017-09-13T08:57:23.887Z,996.6
2017-09-13T08:58:25.306Z,996.6
2017-09-13T08:59:26.720Z,996.6
2017-09-13T09:00:28.137Z,996.6
2017-09-13T09:01:29.551Z,996.6
2017-09-13T09:02:30.970Z,996.7
2017-09-13T09:03:32.386Z,996.6
2017-09-13T09:04:33.821Z,996.5
2017-09-13T09:05:35.238Z,996.7
2017-09-13T09:06:36.656Z,996.6
2017-09-13T09:07:38.073Z,996.6
2017-09-13T09:08:39.499Z,996.6
2017-09-13T09:09:40.917Z,996.7
2017-09-13T09:10:42.333Z,996.7
2017-09-13T09:11:43.754Z,996.8
2017-09-13T09:12:45.176Z,996.7
2017-09-13T09:13:46.591Z,996.7
2017-09-13T09:14:48.009Z,996.7
2017-09-13T09:15:49.429Z,996.9
2017-09-13T09:16:50.844Z,996.7
2017-09-13T09:17:52.264Z,996.9
2017-09-13T09:18:53.678Z,996.6
2017-09-13T09:19:55.095Z,996.7
2017-09-13T09:20:56.511Z,996.9
2017-09-13T09:21:57.929Z,996.5
2017-09-13T09:22:59.347Z,996.3
2017-09-13T09:24:00.770Z,996.9
2017-09-13T09:25:02.188Z,996.9
2017-09-13T09:26:03.603Z,996.8
2017-09-13T09:27:05.023Z,996.9
2017-09-13T09:28:06.438Z,996.8
2017-09-13T09:29:07.853Z,996.9
2017-09-13T09:30:09.272Z,996.8
2017-09-13T09:31:10.709Z,996.9
2017-09-13T09:32:12.124Z,996.9
2017-09-13T09:33:13.546Z,996.9
2017-09-13T09:34:14.964Z,996.8
2017-09-13T09:35:16.384Z,997.0
2017-09-13T09:36:17.801Z,997.1
2017-09-13T09:37:19.222Z,997.2
2017-09-13T09:38:20.644Z,997.3
2017-09-13T09:39:22.060Z,996.9
2017-09-13T09:40:23.480Z,996.9
2017-09-13T09:41:24.897Z,996.9
2017-09-13T09:42:26.321Z,996.9
2017-09-13T09:43:27.736Z,996.9
2017-09-13T09:44:29.155Z,996.9
2017-09-13T09:45:30.575Z,996.8
2017-09-13T09:46:31.991Z,997.0
2017-09-13T09:47:33.415Z,997.0
2017-09-13T09:48:34.833Z,996.8
2017-09-13T09:49:36.252Z,996.8
2017-09-13T09:50:37.670Z,996.9
2017-09-13T09:51:39.086Z,996.8
2017-09-13T09:52:40.504Z,996.9
2017-09-13T09:53:41.922Z,996.8
2017-09-13T09:54:43.340Z,996.8
2017-09-13T09:55:44.759Z,997.1
2017-09-13T09:56:46.178Z,996.9
2017-09-13T09:57:47.596Z,997.0
2017-09-13T09:58:49.018Z,996.7
2017-09-13T09:59:50.431Z,996.9
2017-09-13T10:00:51.850Z,996.9
2017-09-13T10:01:53.266Z,996.8
2017-09-13T10:02:54.684Z,996.8
2017-09-13T10:03:56.100Z,996.9
2017-09-13T10:04:57.519Z,996.9
2017-09-13T10:05:58.937Z,997.0
2017-09-13T10:07:00.354Z,997.1
2017-09-13T10:08:01.771Z,997.1
2017-09-13T10:09:03.193Z,997.1
2017-09-13T10:10:04.604Z,997.0
2017-09-13T10:11:06.021Z,997.1
2017-09-13T10:12:07.450Z,997.2
2017-09-13T10:13:08.857Z,997.1
2017-09-13T10:14:10.277Z,997.2
2017-09-13T10:15:11.695Z,997.2
2017-09-13T10:16:13.116Z,997.2
2017-09-13T10:17:14.534Z,997.1
2017-09-13T10:18:15.951Z,997.2
2017-09-13T10:19:17.370Z,997.1
2017-09-13T10:20:18.789Z,997.2
2017-09-13T10:21:20.204Z,997.1
2017-09-13T10:22:21.621Z,997.1
2017-09-13T10:23:23.040Z,997.2
2017-09-13T10:24:24.456Z,997.2
2017-09-13T10:25:25.874Z,997.3
2017-09-13T10:26:27.293Z,997.2
2017-09-13T10:27:28.713Z,997.2
2017-09-13T10:28:30.134Z,997.1
2017-09-13T10:29:31.553Z,997.3
2017-09-13T10:30:32.970Z,997.2
2017-09-13T10:31:34.389Z,997.2
2017-09-13T10:32:35.809Z,997.2
2017-09-13T10:33:37.228Z,997.2
2017-09-13T10:34:38.648Z,997.2
2017-09-13T10:35:40.068Z,997.2
2017-09-13T10:36:41.488Z,997.2
2017-09-13T10:37:42.910Z,997.2
2017-09-13T10:38:44.328Z,997.2
2017-09-13T10:39:45.747Z,997.3
2017-09-13T10:40:47.167Z,997.3
2017-09-13T10:41:48.586Z,997.4
2017-09-13T10:42:50.008Z,997.4
2017-09-13T10:43:51.426Z,997.4
2017-09-13T10:44:52.840Z,997.3
2017-09-13T10:45:54.258Z,997.5
2017-09-13T10:46:55.675Z,997.4
2017-09-13T10:47:57.093Z,997.4
2017-09-13T10:48:58.513Z,997.4
2017-09-13T10:49:59.929Z,997.6
2017-09-13T10:51:01.348Z,997.6
2017-09-13T10:52:02.781Z,997.7
2017-09-13T10:53:04.200Z,997.7
2017-09-13T10:54:05.621Z,997.6
2017-09-13T10:55:07.039Z,997.5
2017-09-13T10:56:08.456Z,997.6
2017-09-13T10:57:09.877Z,997.6
2017-09-13T10:58:11.298Z,997.7
2017-09-13T10:59:12.715Z,997.6
2017-09-13T11:00:14.135Z,997.7
2017-09-13T11:01:15.552Z,997.3
2017-09-13T11:02:16.972Z,997.8
2017-09-13T11:03:18.387Z,998.0
2017-09-13T11:04:19.817Z,997.7
2017-09-13T11:05:21.236Z,997.8
2017-09-13T11:06:22.655Z,997.8
2017-09-13T11:07:24.102Z,998.0
2017-09-13T11:08:25.522Z,997.7
2017-09-13T11:09:26.952Z,997.7
2017-09-13T11:10:28.373Z,997.7
2017-09-13T11:11:29.793Z,997.7
2017-09-13T11:12:31.210Z,997.8
2017-09-13T11:13:32.640Z,997.8
2017-09-13T11:14:34.052Z,997.7
2017-09-13T11:15:35.477Z,998.0
2017-09-13T11:16:36.896Z,997.8
2017-09-13T11:17:38.316Z,997.7
2017-09-13T11:18:39.743Z,997.9
2017-09-13T11:19:41.156Z,997.8
2017-09-13T11:20:42.576Z,997.8
2017-09-13T11:21:44.007Z,998.0
2017-09-13T11:22:45.422Z,997.9
2017-09-13T11:23:46.847Z,997.7
2017-09-13T11:24:48.266Z,997.7
2017-09-13T11:25:49.687Z,998.1
2017-09-13T11:26:51.115Z,998.0
2017-09-13T11:27:52.530Z,998.0
2017-09-13T11:28:53.950Z,998.0
2017-09-13T11:29:55.369Z,998.2
2017-09-13T11:30:56.795Z,998.0
2017-09-13T11:31:58.216Z,998.0
2017-09-13T11:32:59.630Z,997.9
2017-09-13T11:34:01.052Z,998.1
2017-09-13T11:35:02.468Z,998.0
2017-09-13T11:36:03.889Z,998.0
2017-09-13T11:37:05.311Z,998.1
2017-09-13T11:38:06.731Z,998.0
2017-09-13T11:39:08.187Z,997.9
2017-09-13T11:40:09.579Z,997.9
2017-09-13T11:41:11.001Z,998.0
2017-09-13T11:42:12.420Z,998.0
2017-09-13T11:43:13.841Z,998.0
2017-09-13T11:44:15.263Z,998.0
2017-09-13T11:45:16.681Z,998.0
2017-09-13T11:46:18.100Z,998.2
2017-09-13T11:47:19.520Z,998.1
2017-09-13T11:48:20.939Z,998.0
2017-09-13T11:49:22.359Z,998.1
2017-09-13T11:50:23.778Z,998.1
2017-09-13T11:51:25.197Z,998.0
2017-09-13T11:52:26.615Z,998.0
2017-09-13T11:53:28.036Z,998.2
2017-09-13T11:54:29.454Z,998.1
2017-09-13T11:55:30.872Z,998.2
2017-09-13T11:56:32.291Z,998.3
2017-09-13T11:57:33.713Z,998.3
2017-09-13T11:58:35.148Z,998.2
2017-09-13T11:59:36.574Z,998.2
2017-09-13T12:00:38.026Z,998.2
2017-09-13T12:01:39.408Z,998.3
2017-09-13T12:02:40.830Z,998.2
2017-09-13T12:03:42.257Z,998.1
2017-09-13T12:04:43.676Z,998.1
2017-09-13T12:05:45.106Z,998.2
2017-09-13T12:06:46.521Z,998.5
2017-09-13T12:07:47.942Z,998.4
2017-09-13T12:08:49.361Z,998.5
2017-09-13T12:09:50.772Z,998.4
2017-09-13T12:10:52.197Z,998.5
2017-09-13T12:11:53.616Z,998.5
2017-09-13T12:12:55.035Z,998.9
2017-09-13T12:13:56.459Z,998.7
2017-09-13T12:14:57.877Z,998.6
2017-09-13T12:15:59.296Z,998.6
2017-09-13T12:17:00.714Z,998.5
2017-09-13T12:18:02.133Z,998.5
2017-09-13T12:19:03.554Z,998.5
2017-09-13T12:20:04.972Z,998.7
2017-09-13T12:21:06.391Z,998.7
2017-09-13T12:22:07.811Z,998.7
2017-09-13T12:23:09.247Z,998.6
2017-09-13T12:24:10.668Z,998.7
2017-09-13T12:25:12.088Z,998.6
2017-09-13T12:26:13.507Z,998.7
2017-09-13T12:27:14.928Z,998.7
2017-09-13T12:28:16.347Z,998.7
2017-09-13T12:29:17.766Z,998.7
2017-09-13T12:30:19.185Z,998.7
2017-09-13T12:31:20.606Z,998.7
2017-09-13T12:32:22.027Z,998.6
2017-09-13T12:33:23.448Z,998.7
2017-09-13T12:34:24.871Z,998.5
2017-09-13T12:35:26.293Z,998.6
2017-09-13T12:36:27.706Z,998.5
2017-09-13T12:37:29.129Z,998.7
2017-09-13T12:38:30.548Z,998.6
2017-09-13T12:39:31.966Z,998.7
2017-09-13T12:40:33.387Z,998.6
2017-09-13T12:41:34.808Z,998.6
2017-09-13T12:42:36.229Z,998.6
2017-09-13T12:43:37.646Z,998.7
2017-09-13T12:44:39.065Z,998.6
2017-09-13T12:45:40.487Z,998.7
2017-09-13T12:46:41.908Z,998.6
2017-09-13T12:47:43.332Z,998.6
2017-09-13T12:48:44.748Z,998.6
2017-09-13T12:49:46.171Z,998.7
2017-09-13T12:50:47.591Z,998.6
2017-09-13T12:51:49.011Z,998.7
2017-09-13T12:52:50.430Z,998.6
2017-09-13T12:53:51.853Z,998.8
2017-09-13T12:54:53.271Z,998.6
2017-09-13T12:55:54.690Z,998.7
2017-09-13T12:56:56.113Z,998.7
2017-09-13T12:57:57.596Z,998.7
2017-09-13T12:58:59.015Z,998.7
2017-09-13T13:00:00.440Z,998.7
2017-09-13T13:01:01.854Z,998.7
2017-09-13T13:02:03.272Z,998.8
2017-09-13T13:03:04.691Z,999.0
2017-09-13T13:04:06.110Z,998.9
2017-09-13T13:05:07.531Z,998.9
2017-09-13T13:06:08.949Z,998.8
2017-09-13T13:07:10.367Z,998.8
2017-09-13T13:08:11.788Z,998.8